DNEN METAR and TAF | Updated Today

DNEN METAR

Akanu Ibiam International Airport

Observation time: 10:30 hr. ago

DNEN 192000Z 30003KT 9999 TS SCT011 FEW020CB 27/25 Q1012 TEMPO 5000 -TSRA

Need help? Read our tutorial on how to read METARs or read the parsed version below.

Akanu Ibiam International Airport (DNEN) METAR

  • Weather conditions on Thu, 19 May 2022 20:00:00 +0000 (10:30 hr. ago):
  • Present conditions: Thunderstorms
  • Clouds: Scattered at 335 meters; a few at 610 meters, cumulonimbus
  • Visibility: Greater than 10 km
  • Wind: 300 degrees at 3 knots
  • Temperature: 27 celsius
  • Dew point: 25 celsius
  • Pressure: 1012 millibars
  • Remarks: None


Useful to know...

DNEN TAF

Akanu Ibiam International Airport

TAF not found.

Airports near DNEN

No airports found within 100nm radius.